Latest Coastal Weather Observations for Evans Head

IDN60701

Issued at 4:05 am EST Saturday 30 August 2014 (issued every 10 minutes, with the page automatically refreshed every 10 minutes)

About coastal observations | Map of coastal stations | Coastal observations for NSW | Marine services | Other Formats
Station Details ID: 058212 Name: EVANS HEAD RAAF BOMBING RANGE AWS Lat: -29.18 Lon: 153.40 Height: 62.5 m
Data from the previous 72 hours. | See also: Recent months at Evans Head
Date/Time
EST
Temp

°C
Wind Pressure Rain
since 9am
mm
Weather Cloud Vis
km
Sea
Height
m
Swell
Dir
 
Speed
knots
Gust
knots
hPa Trend Height
m
Period
s
Dir
30/04:00am 11.3 WNW 7 10 1017.8 - 0.0 - - - - - - -
30/03:30am 11.5 WNW 7 11 1017.9 - 0.0 - - - - - - -
30/03:00am 11.6 WNW 7 11 1017.8 - 0.0 - - - - - - -
30/02:30am 11.9 WSW 7 11 1018.4 - 0.0 - - - - - - -
30/02:00am 11.6 WSW 9 11 1018.5 - 0.0 - - - - - - -
30/01:30am 11.6 WSW 11 15 1018.8 - 0.0 - - - - - - -
30/01:00am 12.0 WSW 10 13 1019.2 - 0.0 - - - - - - -
30/12:30am 12.6 WSW 10 12 1019.5 - 0.0 - - - - - - -
30/12:00am 12.8 WSW 9 11 1019.6 - 0.0 - - - - - - -
 
Date/Time
EST
Temp

°C
Wind Pressure Rain
since 9am
mm
Weather Cloud Vis
km
Sea
Height
m
Swell
Dir
 
Speed
knots
Gust
knots
hPa Trend Height
m
Period
s
Dir
29/11:30pm 13.0 WSW 9 10 1019.7 - 0.0 - - - - - - -
29/11:00pm 13.2 W 7 8 1019.9 - 0.0 - - - - - - -
29/10:30pm 13.3 WSW 7 10 1020.2 - 0.0 - - - - - - -
29/10:00pm 13.9 WSW 9 12 1020.2 - 0.0 - - - - - - -
29/09:30pm 13.8 WSW 7 9 1020.6 - 0.0 - - - - - - -
29/09:00pm 14.2 WSW 8 10 1020.3 - 0.0 - - - - - - -
29/08:30pm 14.1 WSW 6 8 1020.4 - 0.0 - - - - - - -
29/08:00pm 14.9 SW 8 10 1020.3 - 0.0 - - - - - - -
29/07:30pm 15.0 WSW 7 9 1020.5 - 0.0 - - - - - - -
29/07:00pm 15.4 SSW 8 12 1020.3 - 0.0 - - - - - - -
29/06:30pm 15.9 S 13 18 1020.2 - 0.0 - - - - - - -
29/06:00pm 15.9 S 13 18 1019.7 - 0.0 - - - - - - -
29/05:30pm 16.3 S 17 22 1019.5 - 0.0 - - - - - - -
29/05:00pm 16.6 S 14 21 1019.4 - 0.0 - - - - - - -
29/04:30pm 17.2 S 13 19 1019.4 - 0.0 - - - - - - -
29/04:00pm 17.7 S 15 20 1019.3 - 0.0 - - - - - - -
29/03:30pm 17.6 S 14 20 1019.4 - 0.0 - - - - - - -
29/03:00pm 18.1 S 15 21 1019.3 - 0.0 - - - - - - -
29/02:30pm 18.9 S 15 22 1019.6 - 0.0 - - - - - - -
29/02:00pm 18.8 S 15 24 1019.8 - 0.0 - - - - - - -
29/01:30pm 19.4 S 17 25 1020.1 - 0.0 - - - - - - -
29/01:00pm 18.5 S 13 18 1020.3 - 0.0 - - - - - - -
29/12:30pm 19.5 S 14 20 1020.8 - 0.0 - - - - - - -
29/12:00pm 18.1 S 13 18 1021.2 - 0.0 - - - - - - -
29/11:30am 19.0 SSW 11 15 1021.7 - 0.0 - - - - - - -
29/11:00am 18.3 SSW 13 20 1022.0 - 0.0 - - - - - - -
29/10:30am 18.2 S 13 18 1022.4 - 0.0 - - - - - - -
29/10:00am 17.1 SSW 12 19 1022.6 - 0.0 - - - - - - -
29/09:30am 16.7 SSW 12 20 1022.8 - 0.0 - - - - - - -
29/09:00am 16.0 SSW 12 18 1022.7 - 2.0 - - - - - - -
29/08:30am 15.3 SSW 12 18 1023.0 - 2.0 - - - - - - -
29/08:00am 14.3 SW 11 16 1022.8 - 2.0 - - - - - - -
29/07:30am 13.2 SW 11 15 1022.7 - 2.0 - - - - - - -
29/07:00am 12.3 WSW 10 14 1022.3 - 2.0 - - - - - - -
29/06:30am 11.6 WSW 10 14 1022.0 - 2.0 - - - - - - -
29/06:00am 11.6 WSW 10 14 1021.8 - 2.0 - - - - - - -
29/05:30am 11.4 WSW 10 13 1021.6 - 2.0 - - - - - - -
29/05:00am 11.6 WSW 11 14 1021.4 - 2.0 - - - - - - -
29/04:30am 11.5 SW 11 16 1021.4 - 2.0 - - - - - - -
29/04:00am 11.7 SW 9 13 1021.4 - 2.0 - - - - - - -
29/03:30am 11.9 SW 11 14 1021.5 - 2.0 - - - - - - -
29/03:00am 12.3 SW 12 16 1021.4 - 2.0 - - - - - - -
29/02:30am 12.4 SW 12 16 1021.4 - 2.0 - - - - - - -
29/02:00am 12.6 SW 10 14 1021.6 - 2.0 - - - - - - -
29/01:30am 12.7 WSW 10 13 1021.8 - 2.0 - - - - - - -
29/01:00am 13.0 SW 11 15 1021.9 - 2.0 - - - - - - -
29/12:30am 13.5 SW 13 18 1021.9 - 2.0 - - - - - - -
29/12:00am 13.7 SW 12 17 1022.0 - 2.0 - - - - - - -
 
Date/Time
EST
Temp

°C
Wind Pressure Rain
since 9am
mm
Weather Cloud Vis
km
Sea
Height
m
Swell
Dir
 
Speed
knots
Gust
knots
hPa Trend Height
m
Period
s
Dir
28/11:30pm 13.2 SSW 13 17 1022.0 - 2.0 - - - - - - -
28/11:00pm 13.4 SSW 13 17 1022.0 - 2.0 - - - - - - -
28/10:30pm 13.8 SSW 13 18 1022.2 - 2.0 - - - - - - -
28/10:00pm 14.2 SSW 12 17 1022.4 - 2.0 - - - - - - -
28/09:30pm 14.0 SSW 14 20 1022.3 - 2.0 - - - - - - -
28/09:00pm 13.7 SW 13 20 1022.3 - 2.0 - - - - - - -
28/08:30pm 14.0 SW 11 17 1022.5 - 2.0 - - - - - - -
28/08:00pm 14.0 SSW 12 16 1022.3 - 2.0 - - - - - - -
28/07:42pm 14.0 SSW 15 25 1022.2 - 2.0 - - - - - - -
28/07:30pm 14.3 SSW 17 26 1022.2 - 2.0 - - - - - - -
28/07:00pm 13.6 SW 13 18 1021.7 - 2.0 - - - - - - -
28/06:30pm 13.5 SSW 11 16 1021.6 - 2.0 - - - - - - -
28/06:11pm 14.0 SSW 15 33 1021.5 - 0.8 - - - - - - -
28/06:00pm 13.9 S 16 24 1021.1 - 0.4 Recent precip. - - - - - -
28/05:49pm 13.9 SSW 21 31 1021.2 - 0.4 - - - - - - -
28/05:43pm 14.9 S 23 30 1020.8 - 0.2 - - - - - - -
28/05:30pm 15.7 SSW 11 15 1020.6 - 0.0 - - - - - - -
28/05:00pm 15.6 SSW 12 18 1020.4 - 0.0 - - - - - - -
28/04:30pm 15.0 SSW 14 19 1020.4 - 0.0 - - - - - - -
28/04:21pm 15.4 SSW 27 37 1020.3 - 0.0 - - - - - - -
28/04:19pm 15.7 SSW 30 37 1020.1 - 0.0 - - - - - - -
28/04:03pm 16.4 SSW 19 29 1019.8 - 0.0 - - - - - - -
28/04:00pm 16.5 SSW 21 29 1019.6 - 0.0 - - - - - - -
28/03:32pm 18.0 S 22 33 1018.9 - 0.0 - - - - - - -
28/03:30pm 18.4 S 22 29 1018.9 - 0.0 - - - - - - -
28/03:00pm 18.7 S 23 34 1018.7 - 0.0 - - - - - - -
28/02:30pm 18.9 S 25 35 1018.5 - 0.0 - - - - - - -
28/02:00pm 19.0 S 25 37 1018.5 - 0.0 - - - - - - -
28/01:31pm 19.6 S 22 32 1018.6 - 0.0 - - - - - - -
28/01:30pm 19.6 S 22 31 1018.6 - 0.0 - - - - - - -
28/01:09pm 18.4 S 23 33 1018.5 - 0.0 - - - - - - -
28/01:00pm 19.7 S 22 30 1018.4 - 0.0 - - - - - - -
28/12:31pm 19.6 S 24 34 1018.5 - 0.0 - - - - - - -
28/12:30pm 19.5 S 25 34 1018.5 - 0.0 - - - - - - -
28/12:02pm 20.1 S 21 31 1018.7 - 0.0 - - - - - - -
28/12:00pm 19.9 S 22 31 1018.6 - 0.0 - - - - - - -
28/11:31am 19.5 S 23 33 1018.8 - 0.0 - - - - - - -
28/11:30am 19.6 S 23 32 1018.8 - 0.0 - - - - - - -
28/11:03am 19.5 S 23 33 1018.9 - 0.0 - - - - - - -
28/11:00am 19.7 S 25 33 1018.8 - 0.0 - - - - - - -
28/10:32am 18.6 S 24 34 1018.8 - 0.0 - - - - - - -
28/10:30am 19.0 S 25 34 1018.8 - 0.0 - - - - - - -
28/10:00am 19.3 S 26 36 1018.4 - 0.0 - - - - - - -
28/09:32am 19.1 S 25 35 1018.2 - 0.0 - - - - - - -
28/09:30am 19.0 S 26 35 1018.1 - 0.0 - - - - - - -
28/09:00am 19.0 S 24 36 1017.9 - 78.6 - - - - - - -
28/08:31am 18.3 S 28 38 1017.6 - 78.6 - - - - - - -
28/08:30am 18.4 S 28 37 1017.6 - 78.6 - - - - - - -
28/08:00am 18.2 S 26 41 1017.1 - 78.6 - - - - - - -
28/07:30am 17.8 S 28 39 1016.9 - 78.6 - - - - - - -
28/07:00am 17.1 S 27 39 1016.2 - 78.6 - - - - - - -
28/06:30am 16.9 S 26 37 1016.2 - 78.6 - - - - - - -
28/06:01am 17.0 S 28 38 1015.8 - 78.6 - - - - - - -
28/06:00am 17.0 S 27 35 1015.7 - 78.6 - - - - - - -
28/05:32am 17.1 S 25 35 1015.4 - 78.6 - - - - - - -
28/05:30am 17.0 S 26 35 1015.4 - 78.6 - - - - - - -
28/05:05am 17.0 S 28 39 1014.9 - 78.6 - - - - - - -
28/05:00am 16.9 S 28 37 1014.8 - 78.6 - - - - - - -
28/04:43am 16.7 S 24 34 1015.0 - 78.6 - - - - - - -
28/04:30am 16.6 S 26 35 1014.9 - 78.6 - - - - - - -
28/04:05am 16.0 S 22 32 1014.7 - 78.6 - - - - - - -
28/04:00am 17.0 S 23 32 1014.5 - 78.2 - - - - - - -
28/03:37am 17.0 S 23 34 1014.4 - 78.2 - - - - - - -
28/03:30am 17.0 S 23 31 1014.5 - 78.2 - - - - - - -
28/03:00am 17.0 S 24 35 1014.5 - 78.2 - - - - - - -
28/02:30am 16.8 SSE 23 36 1014.6 - 78.2 - - - - - - -
28/02:08am 16.5 S 22 32 1014.6 - 78.2 - - - - - - -
28/02:00am 16.6 S 22 29 1014.4 - 78.2 - - - - - - -
28/01:31am 15.9 SSE 19 29 1014.7 - 78.2 - - - - - - -
28/01:30am 16.0 SSE 19 27 1014.7 - 78.2 - - - - - - -
28/01:00am 15.6 SSE 19 25 1015.0 - 78.0 - - - - - - -
28/12:31am 15.1 SSE 23 33 1015.1 - 77.2 - - - - - - -
28/12:30am 15.1 SSE 24 33 1015.1 - 77.0 - - - - - - -
28/12:09am 15.5 SSE 16 29 1015.2 - 75.4 - - - - - - -
28/12:00am 15.4 SSE 16 24 1015.3 - 74.6 Rain - - - - - -
 
Date/Time
EST
Temp

°C
Wind Pressure Rain
since 9am
mm
Weather Cloud Vis
km
Sea
Height
m
Swell
Dir
 
Speed
knots
Gust
knots
hPa Trend Height
m
Period
s
Dir
27/11:36pm 14.5 SE 15 34 1015.3 - 72.6 - - - - - - -
27/11:30pm 14.6 SSE 13 19 1015.1 - 72.6 - - - - - - -
27/11:16pm 15.0 SE 16 27 1015.5 - 71.4 - - - - - - -
27/11:00pm 15.7 SSE 15 23 1015.4 - 70.6 - - - - - - -
27/10:30pm 15.1 SSE 19 27 1015.5 - 70.6 - - - - - - -
27/10:01pm 15.3 SE 16 26 1015.3 - 70.2 - - - - - - -
27/10:00pm 15.3 SE 17 26 1015.3 - 70.2 - - - - - - -
27/09:30pm 15.5 SSE 18 27 1015.4 - 69.8 - - - - - - -
27/09:00pm 15.7 SSE 16 24 1015.0 - 69.6 Recent precip. - - - - - -
27/08:48pm 15.9 SSE 19 29 1015.0 - 69.6 - - - - - - -
27/08:30pm 15.7 SSE 20 28 1015.0 - 69.2 - - - - - - -
27/08:17pm 15.5 SSE 17 27 1014.9 - 69.0 - - - - - - -
27/08:00pm 15.5 SSE 20 26 1014.6 - 68.6 - - - - - - -
27/07:30pm 15.2 SSE 20 30 1014.4 - 67.8 - - - - - - -
27/07:08pm 15.1 SSE 22 32 1014.5 - 65.6 - - - - - - -
27/07:00pm 15.3 SSE 23 32 1014.4 - 65.0 - - - - - - -
27/06:31pm 15.3 SSE 23 35 1013.8 - 62.2 - - - - - - -
27/06:30pm 15.4 SSE 23 32 1013.8 - 62.2 - - - - - - -
27/06:00pm 15.0 SSE 24 35 1013.1 - 61.4 Rain - - - - - -
27/05:39pm 14.3 S 15 27 1013.7 - 59.0 - - - - - - -
27/05:30pm 12.7 SW 13 21 1013.4 - 56.4 - - - - - - -
27/05:06pm 12.2 SW 16 26 1013.1 - 50.6 - - - - - - -
27/05:00pm 12.2 SW 17 24 1013.2 - 49.2 - - - - - - -
27/04:30pm 12.1 WSW 14 22 1013.1 - 44.4 - - - - - - -
27/04:00pm 12.3 WSW 14 21 1013.5 - 42.2 - - - - - - -
27/03:31pm 12.3 WSW 15 25 1013.9 - 39.2 - - - - - - -
27/03:30pm 12.4 WSW 14 25 1013.9 - 39.2 - - - - - - -
27/03:00pm 12.9 SW 13 18 1014.0 - 36.2 Rain - - - - - -
27/02:30pm 13.1 WSW 11 16 1014.5 - 32.8 - - - - - - -
27/02:00pm 13.6 SW 15 19 1014.7 - 30.2 - - - - - - -
27/01:38pm 13.6 S 15 25 1015.0 - 28.6 - - - - - - -
27/01:30pm 13.8 SSW 11 15 1015.1 - 28.0 - - - - - - -
27/01:00pm 14.2 SSW 15 20 1015.2 - 24.4 - - - - - - -
27/12:30pm 14.3 S 19 29 1015.3 - 23.0 - - - - - - -
27/12:20pm 14.0 S 18 29 1015.5 - 22.6 - - - - - - -
27/12:00pm 13.5 SSE 21 28 1015.8 - 20.6 Rain - - - - - -
27/11:30am 14.4 S 19 30 1015.9 - 17.4 - - - - - - -
27/11:21am 14.1 S 15 25 1016.1 - 15.4 - - - - - - -
27/11:00am 13.8 SW 11 18 1016.5 - 6.2 - - - - - - -
27/10:30am 13.7 SW 10 14 1016.9 - 3.2 - - - - - - -
27/10:00am 13.5 SW 10 14 1017.0 - 1.2 - - - - - - -
27/09:30am 13.3 SSW 13 18 1017.3 - 0.8 - - - - - - -
27/09:00am 13.2 SSW 12 17 1017.1 - 21.6 Recent precip. - - - - - -
27/08:30am 13.1 SSW 11 17 1017.0 - 21.4 - - - - - - -
27/08:00am 13.0 SSW 12 18 1016.6 - 21.2 - - - - - - -
27/07:30am 13.1 SSW 12 17 1016.8 - 19.4 - - - - - - -
27/07:00am 13.3 SW 10 13 1016.2 - 14.8 - - - - - - -
27/06:30am 13.4 SW 11 15 1015.9 - 12.8 - - - - - - -
27/06:00am 13.5 SW 9 17 1015.8 - 10.0 Rain - - - - - -
27/05:30am 13.4 SW 12 17 1015.5 - 4.6 - - - - - - -
27/05:00am 13.4 SW 10 15 1015.2 - 4.0 - - - - - - -
27/04:30am 13.5 SW 10 15 1015.2 - 3.6 - - - - - - -

Other Formats:

Comma delimited format used in spreadsheet applications
http://www.bom.gov.au/fwo/IDN60701/IDN60701.94598.axf

JavaScript Object Notation format (JSON) in row-major order
http://www.bom.gov.au/fwo/IDN60701/IDN60701.94598.json